WATT/KOE METAR and TAF weather

Enter ICAO airport designator
Station Type Date Time Source
WATT METAR 2019/04/18 23:00 UTC NOAA

WATT 182300Z 09005KT 9999 FEW018 26/23 Q1012 NOSIG


Station Type Date Time Source
WATT Decoded METAR 2019/04/18 23:00 UTC NOAA

Station name not available
Apr 18, 2019 - 07:00 PM EDT / 2019.04.18 2300 UTC
Wind: from the E (090 degrees) at 6 MPH (5 KT):0
Visibility: greater than 7 mile(s):0
Sky conditions: mostly clear
Temperature: 78 F (26 C)
Dew Point: 73 F (23 C)
Relative Humidity: 83%
Pressure (altimeter): 29.88 in. Hg (1012 hPa)
ob: WATT 182300Z 09005KT 9999 FEW018 26/23 Q1012 NOSIG
cycle: 23

Station Type Date Time Source
WATT TAF 2019/04/18 18:00 UTC NOAA

TAF WATT 181700Z 1818/1918 10008KT 8000 SCT018
BECMG 1903/1905 27015KT
BECMG 1909/1911 12007KT

Example: see airport list